createdAt,value
2022-10-02T00:00:36.272Z,5.10
2022-10-02T00:03:08.299Z,5.33
2022-10-02T00:05:37.783Z,4.50
2022-10-02T00:08:06.633Z,5.03
2022-10-02T00:10:36.437Z,4.40
2022-10-02T00:13:05.363Z,4.60
2022-10-02T00:15:34.087Z,4.23
2022-10-02T00:18:03.662Z,4.63
2022-10-02T00:20:35.681Z,5.50
2022-10-02T00:23:04.228Z,3.57
2022-10-02T00:25:33.918Z,4.40
2022-10-02T00:28:08.765Z,4.57
2022-10-02T00:30:39.145Z,4.47
2022-10-02T00:33:09.074Z,4.33
2022-10-02T00:35:41.776Z,4.97
2022-10-02T00:38:13.175Z,5.00
2022-10-02T00:40:44.666Z,3.80
2022-10-02T00:43:15.767Z,3.70
2022-10-02T00:45:50.796Z,3.73
2022-10-02T00:48:23.458Z,3.40
2022-10-02T00:50:54.581Z,3.67
2022-10-02T00:53:25.084Z,3.13
2022-10-02T00:55:58.269Z,3.80
2022-10-02T00:58:35.143Z,3.10
2022-10-02T01:01:04.871Z,3.67
2022-10-02T01:03:34.091Z,2.37
2022-10-02T01:06:03.718Z,2.90
2022-10-02T01:08:31.954Z,2.67
2022-10-02T01:11:00.200Z,2.80
2022-10-02T01:13:28.512Z,2.70
2022-10-02T01:15:57.319Z,2.60
2022-10-02T01:18:25.587Z,2.80
2022-10-02T01:20:54.516Z,2.70
2022-10-02T01:23:29.106Z,2.70
2022-10-02T01:25:58.742Z,2.60
2022-10-02T01:28:27.024Z,2.80
2022-10-02T01:30:56.765Z,3.00
2022-10-02T01:33:25.067Z,2.87
2022-10-02T01:35:53.318Z,2.77
2022-10-02T01:38:23.119Z,2.93
2022-10-02T01:40:51.512Z,2.47
2022-10-02T01:43:21.587Z,2.37
2022-10-02T01:45:54.222Z,1.93
2022-10-02T01:48:24.402Z,2.73
2022-10-02T01:50:56.080Z,2.87
2022-10-02T01:53:25.848Z,2.07
2022-10-02T01:55:54.918Z,2.07
2022-10-02T01:58:26.406Z,2.23
2022-10-02T02:00:58.275Z,2.10
2022-10-02T02:03:29.383Z,2.27
2022-10-02T02:05:58.352Z,1.97
2022-10-02T02:08:28.752Z,2.13
2022-10-02T02:11:03.861Z,1.70
2022-10-02T02:13:33.885Z,1.87
2022-10-02T02:16:03.680Z,2.20
2022-10-02T02:18:34.863Z,2.13
2022-10-02T02:21:04.577Z,2.27
2022-10-02T02:23:32.992Z,1.70
2022-10-02T02:26:01.559Z,1.53
2022-10-02T02:28:29.899Z,2.07
2022-10-02T02:30:59.553Z,1.93
2022-10-02T02:33:29.368Z,2.37
2022-10-02T02:35:58.378Z,1.90
2022-10-02T02:38:28.332Z,1.80
2022-10-02T02:40:56.947Z,1.67
2022-10-02T02:43:26.243Z,1.50
2022-10-02T02:45:55.803Z,1.77
2022-10-02T02:48:26.646Z,1.50
2022-10-02T02:50:55.614Z,1.60
2022-10-02T02:53:25.052Z,1.87
2022-10-02T02:55:53.989Z,1.20
2022-10-02T02:58:22.902Z,1.53
2022-10-02T03:00:51.160Z,1.50
2022-10-02T03:03:19.500Z,1.67
2022-10-02T03:05:49.514Z,1.53
2022-10-02T03:08:20.256Z,1.30
2022-10-02T03:10:52.241Z,1.83
2022-10-02T03:13:25.340Z,1.37
2022-10-02T03:15:56.396Z,1.50
2022-10-02T03:18:37.402Z,1.53
2022-10-02T03:21:09.020Z,1.00
2022-10-02T03:23:38.621Z,1.27
2022-10-02T03:26:08.801Z,1.40
2022-10-02T03:28:54.970Z,1.43
2022-10-02T03:31:24.706Z,1.33
2022-10-02T03:33:53.745Z,1.20
2022-10-02T03:36:24.574Z,1.40
2022-10-02T03:39:12.622Z,1.00
2022-10-02T03:41:41.412Z,1.30
2022-10-02T03:44:09.774Z,1.27
2022-10-02T03:46:38.455Z,0.90
2022-10-02T03:49:07.022Z,1.27
2022-10-02T03:51:36.652Z,1.03
2022-10-02T03:54:04.909Z,0.90
2022-10-02T03:56:36.782Z,1.13
2022-10-02T03:59:05.513Z,1.03
2022-10-02T04:01:34.391Z,1.37
2022-10-02T04:04:04.224Z,1.10
2022-10-02T04:06:35.625Z,1.10
2022-10-02T04:09:06.773Z,0.93
2022-10-02T04:11:35.378Z,1.10
2022-10-02T04:14:06.657Z,1.93
2022-10-02T04:16:35.802Z,1.40
2022-10-02T04:19:05.391Z,1.10
2022-10-02T04:21:35.361Z,1.30
2022-10-02T04:24:06.380Z,1.17
2022-10-02T04:26:35.757Z,1.20
2022-10-02T04:29:07.177Z,1.03
2022-10-02T04:31:35.485Z,0.67
2022-10-02T04:34:03.887Z,0.90
2022-10-02T04:36:36.857Z,0.97
2022-10-02T04:39:09.399Z,1.23
2022-10-02T04:41:59.697Z,1.00
2022-10-02T04:44:36.661Z,1.30
2022-10-02T04:47:08.785Z,0.73
2022-10-02T04:49:43.049Z,0.93
2022-10-02T04:52:16.958Z,0.80
2022-10-02T04:54:50.993Z,0.80
2022-10-02T04:57:22.888Z,1.33
2022-10-02T04:59:53.932Z,1.00
2022-10-02T05:02:34.374Z,1.10
2022-10-02T05:05:05.906Z,0.83
2022-10-02T05:07:41.320Z,0.63
2022-10-02T05:10:18.578Z,0.80
2022-10-02T05:12:50.359Z,1.10
2022-10-02T05:15:22.146Z,0.80
2022-10-02T05:17:59.533Z,0.87
2022-10-02T05:20:34.067Z,0.80
2022-10-02T05:23:12.707Z,0.70
2022-10-02T05:25:55.513Z,0.70
2022-10-02T05:28:28.402Z,0.77
2022-10-02T05:30:56.983Z,0.50
2022-10-02T05:33:33.102Z,0.90
2022-10-02T05:36:05.547Z,0.80
2022-10-02T05:38:40.213Z,0.83
2022-10-02T05:41:10.745Z,0.70
2022-10-02T05:43:40.038Z,0.70
2022-10-02T05:46:10.164Z,0.90
2022-10-02T05:48:39.518Z,1.53
2022-10-02T05:51:08.333Z,1.47
2022-10-02T05:53:37.161Z,1.30
2022-10-02T05:56:06.836Z,1.80
2022-10-02T05:58:37.331Z,1.37
2022-10-02T06:01:07.203Z,2.33
2022-10-02T06:03:36.118Z,1.57
2022-10-02T06:06:04.838Z,1.87
2022-10-02T06:08:35.757Z,1.77
2022-10-02T06:11:05.302Z,2.00
2022-10-02T06:13:36.187Z,2.47
2022-10-02T06:16:06.604Z,1.90
2022-10-02T06:18:35.202Z,2.77
2022-10-02T06:21:03.676Z,2.23
2022-10-02T06:23:33.043Z,2.13
2022-10-02T06:26:01.543Z,2.50
2022-10-02T06:28:30.088Z,2.37
2022-10-02T06:31:01.485Z,2.50
2022-10-02T06:33:30.121Z,3.17
2022-10-02T06:36:16.288Z,2.30
2022-10-02T06:38:52.605Z,2.10
2022-10-02T06:41:24.992Z,3.10
2022-10-02T06:43:56.494Z,2.47
2022-10-02T06:46:30.045Z,3.33
2022-10-02T06:48:59.149Z,3.17
2022-10-02T06:51:31.838Z,3.50
2022-10-02T06:54:02.393Z,3.57
2022-10-02T06:56:37.379Z,3.43
2022-10-02T06:59:09.626Z,3.87
2022-10-02T07:01:42.823Z,3.50
2022-10-02T07:04:20.138Z,3.83
2022-10-02T07:06:52.993Z,4.63
2022-10-02T07:09:26.240Z,5.10
2022-10-02T07:11:55.525Z,4.03
2022-10-02T07:14:28.035Z,5.93
2022-10-02T07:17:00.936Z,4.93
2022-10-02T07:19:32.162Z,5.37
2022-10-02T07:22:07.827Z,5.27
2022-10-02T07:24:54.244Z,5.73
2022-10-02T07:27:24.305Z,5.70
2022-10-02T07:29:54.552Z,5.13
2022-10-02T07:32:27.835Z,6.10
2022-10-02T07:34:59.068Z,5.63
2022-10-02T07:37:29.160Z,5.07
2022-10-02T07:40:02.409Z,7.13
2022-10-02T07:42:34.017Z,7.00
2022-10-02T07:45:08.470Z,7.40
2022-10-02T07:47:45.037Z,6.73
2022-10-02T07:50:15.010Z,7.40
2022-10-02T07:52:45.502Z,7.93
2022-10-02T07:55:16.975Z,8.23
2022-10-02T07:57:49.034Z,7.57
2022-10-02T08:00:18.055Z,7.73
2022-10-02T08:02:49.407Z,9.27
2022-10-02T08:05:21.835Z,8.07
2022-10-02T08:07:50.983Z,9.53
2022-10-02T08:10:20.091Z,8.77
2022-10-02T08:12:49.396Z,7.83
2022-10-02T08:15:19.084Z,7.73
2022-10-02T08:17:49.955Z,7.97
2022-10-02T08:20:20.598Z,7.20
2022-10-02T08:22:49.923Z,6.90
2022-10-02T08:25:19.926Z,9.03
2022-10-02T08:27:50.259Z,7.57
2022-10-02T08:30:18.629Z,7.10
2022-10-02T08:32:47.909Z,7.67
2022-10-02T08:35:18.016Z,7.10
2022-10-02T08:37:49.500Z,8.07
2022-10-02T08:40:32.592Z,8.43
2022-10-02T08:43:12.866Z,8.03
2022-10-02T08:45:55.975Z,7.57
2022-10-02T08:48:42.628Z,8.90
2022-10-02T08:51:26.061Z,8.73
2022-10-02T08:54:00.641Z,8.80
2022-10-02T08:56:39.875Z,10.40
2022-10-02T08:59:19.935Z,9.17
2022-10-02T09:02:03.578Z,8.93
2022-10-02T09:04:50.393Z,8.47
2022-10-02T09:07:39.577Z,9.43
2022-10-02T09:10:33.609Z,8.47
2022-10-02T09:13:25.751Z,7.50
2022-10-02T09:15:56.065Z,8.60
2022-10-02T09:18:30.679Z,6.73
2022-10-02T09:21:10.737Z,8.10
2022-10-02T09:24:04.084Z,5.87
2022-10-02T09:26:38.303Z,8.13
2022-10-02T09:29:11.543Z,7.40
2022-10-02T09:32:04.106Z,7.53
2022-10-02T09:34:36.963Z,6.63
2022-10-02T09:37:24.835Z,6.67
2022-10-02T09:40:17.063Z,6.83
2022-10-02T09:43:00.771Z,5.83
2022-10-02T09:45:36.390Z,6.23
2022-10-02T09:48:30.312Z,5.83
2022-10-02T09:51:17.387Z,5.97
2022-10-02T09:53:54.849Z,6.13
2022-10-02T09:56:28.083Z,6.00
2022-10-02T09:59:14.654Z,5.43
2022-10-02T10:02:02.059Z,5.10
2022-10-02T10:05:04.658Z,5.90
2022-10-02T10:07:39.786Z,5.07
2022-10-02T10:10:29.727Z,5.57
2022-10-02T10:13:12.995Z,6.20
2022-10-02T10:15:58.418Z,5.33
2022-10-02T10:18:51.118Z,5.93
2022-10-02T10:21:30.379Z,5.77
2022-10-02T10:24:06.537Z,4.97
2022-10-02T10:26:58.865Z,5.67
2022-10-02T10:29:45.445Z,4.07
2022-10-02T10:32:30.934Z,5.27
2022-10-02T10:35:05.527Z,5.30
2022-10-02T10:38:06.463Z,4.90
2022-10-02T10:40:38.389Z,5.50
2022-10-02T10:43:16.816Z,4.77
2022-10-02T10:45:59.120Z,4.93
2022-10-02T10:48:33.795Z,5.80
2022-10-02T10:51:06.247Z,4.80
2022-10-02T10:53:39.702Z,5.73
2022-10-02T10:56:27.640Z,5.10
2022-10-02T10:59:02.739Z,4.93
2022-10-02T11:01:37.110Z,4.47
2022-10-02T11:04:19.354Z,4.50
2022-10-02T11:06:52.724Z,5.67
2022-10-02T11:09:31.544Z,4.27
2022-10-02T11:12:08.855Z,4.47
2022-10-02T11:14:41.079Z,3.73
2022-10-02T11:17:24.535Z,4.57
2022-10-02T11:20:10.539Z,4.37
2022-10-02T11:22:44.244Z,3.67
2022-10-02T11:25:25.724Z,3.60
2022-10-02T11:28:06.716Z,3.47
2022-10-02T11:30:40.820Z,2.80
2022-10-02T11:33:19.887Z,3.23
2022-10-02T11:36:12.041Z,2.90
2022-10-02T11:39:04.666Z,3.13
2022-10-02T11:41:43.795Z,2.40
2022-10-02T11:44:13.320Z,2.53
2022-10-02T11:46:59.212Z,2.60
2022-10-02T11:49:34.505Z,2.33
2022-10-02T11:52:15.376Z,2.30
2022-10-02T11:54:46.948Z,2.17
2022-10-02T11:57:22.553Z,2.13
2022-10-02T12:00:14.120Z,2.00
2022-10-02T12:02:44.566Z,2.73
2022-10-02T12:05:29.941Z,1.93
2022-10-02T12:08:01.462Z,2.30
2022-10-02T12:10:42.282Z,1.67
2022-10-02T12:13:28.097Z,1.27
2022-10-02T12:15:59.038Z,1.40
2022-10-02T12:18:31.805Z,1.73
2022-10-02T12:21:24.305Z,1.20
2022-10-02T12:24:12.492Z,1.77
2022-10-02T12:27:04.188Z,1.87
2022-10-02T12:29:40.892Z,1.40
2022-10-02T12:32:11.818Z,2.00
2022-10-02T12:34:42.166Z,1.83
2022-10-02T12:37:11.456Z,1.50
2022-10-02T12:39:42.931Z,0.73
2022-10-02T12:42:13.933Z,1.50
2022-10-02T12:44:45.973Z,1.30
2022-10-02T12:47:22.234Z,1.50
2022-10-02T12:49:52.424Z,1.13
2022-10-02T12:52:27.840Z,1.17
2022-10-02T12:55:03.636Z,1.00
2022-10-02T12:57:53.504Z,1.03
2022-10-02T13:00:23.351Z,0.90
2022-10-02T13:03:01.852Z,0.60
2022-10-02T13:05:47.392Z,1.23
2022-10-02T13:08:31.139Z,0.63
2022-10-02T13:11:02.318Z,0.87
2022-10-02T13:13:36.239Z,1.00
2022-10-02T13:16:07.382Z,0.93
2022-10-02T13:18:43.828Z,0.77
2022-10-02T13:21:14.332Z,1.00
2022-10-02T13:23:43.587Z,0.97
2022-10-02T13:26:15.758Z,0.80
2022-10-02T13:28:53.639Z,0.47
2022-10-02T13:31:27.059Z,0.70
2022-10-02T13:34:02.272Z,0.70
2022-10-02T13:36:35.307Z,0.63
2022-10-02T13:39:13.614Z,0.50
2022-10-02T13:41:45.449Z,0.73
2022-10-02T13:44:16.742Z,0.80
2022-10-02T13:46:53.528Z,0.80
2022-10-02T13:49:24.318Z,1.10
2022-10-02T13:51:53.903Z,0.70
2022-10-02T13:54:32.363Z,0.50
2022-10-02T13:57:03.063Z,0.97
2022-10-02T13:59:39.441Z,1.07
2022-10-02T14:02:14.327Z,0.90
2022-10-02T14:04:48.691Z,1.30
2022-10-02T14:07:22.067Z,1.27
2022-10-02T14:09:53.456Z,1.00
2022-10-02T14:12:27.678Z,0.80
2022-10-02T14:15:05.371Z,0.80
2022-10-02T14:17:36.498Z,1.00
2022-10-02T14:20:05.820Z,0.70
2022-10-02T14:22:36.115Z,0.80
2022-10-02T14:25:09.381Z,0.70
2022-10-02T14:27:57.270Z,0.83
2022-10-02T14:30:25.927Z,0.80
2022-10-02T14:32:57.963Z,0.60
2022-10-02T14:35:36.628Z,0.50
2022-10-02T14:38:38.012Z,1.00
2022-10-02T14:41:13.195Z,0.73
2022-10-02T14:44:02.303Z,0.60
2022-10-02T14:46:33.641Z,0.80
2022-10-02T14:49:07.345Z,0.70
2022-10-02T14:51:46.668Z,0.70
2022-10-02T14:54:21.670Z,0.50
2022-10-02T14:57:07.779Z,1.07
2022-10-02T14:59:53.698Z,0.60
2022-10-02T15:02:27.103Z,0.73
2022-10-02T15:05:00.052Z,1.17
2022-10-02T15:07:34.897Z,0.87
2022-10-02T15:10:04.535Z,1.00
2022-10-02T15:12:44.069Z,1.10
2022-10-02T15:15:16.220Z,0.80
2022-10-02T15:17:56.813Z,0.60
2022-10-02T15:20:31.437Z,0.63
2022-10-02T15:23:00.332Z,0.80
2022-10-02T15:25:43.563Z,1.03
2022-10-02T15:28:35.392Z,0.90
2022-10-02T15:31:03.762Z,1.30
2022-10-02T15:33:33.242Z,0.73
2022-10-02T15:36:09.581Z,0.60
2022-10-02T15:38:51.749Z,1.20
2022-10-02T15:41:32.391Z,0.97
2022-10-02T15:44:04.143Z,1.13
2022-10-02T15:46:34.309Z,1.10
2022-10-02T15:49:08.948Z,0.70
2022-10-02T15:51:44.068Z,0.90
2022-10-02T15:54:20.346Z,0.80
2022-10-02T15:57:05.168Z,0.60
2022-10-02T15:59:39.572Z,0.97
2022-10-02T16:02:18.998Z,0.50
2022-10-02T16:04:52.460Z,0.70
2022-10-02T16:07:36.523Z,1.23
2022-10-02T16:10:10.276Z,0.90
2022-10-02T16:12:42.489Z,1.13
2022-10-02T16:15:15.348Z,1.37
2022-10-02T16:18:01.710Z,1.07
2022-10-02T16:20:34.263Z,0.80
2022-10-02T16:23:08.188Z,0.80
2022-10-02T16:25:46.082Z,0.67
2022-10-02T16:28:17.836Z,0.80
2022-10-02T16:30:58.768Z,1.07
2022-10-02T16:33:27.977Z,0.77
2022-10-02T16:36:03.438Z,1.10
2022-10-02T16:38:40.383Z,1.10
2022-10-02T16:41:14.999Z,0.80
2022-10-02T16:43:59.507Z,0.83
2022-10-02T16:46:29.668Z,0.73
2022-10-02T16:49:01.176Z,1.10
2022-10-02T16:51:38.124Z,1.00
2022-10-02T16:54:14.734Z,0.80
2022-10-02T16:56:44.662Z,0.80
2022-10-02T16:59:14.533Z,1.73
2022-10-02T17:02:05.821Z,0.93
2022-10-02T17:04:43.783Z,1.47
2022-10-02T17:07:31.717Z,1.23
2022-10-02T17:10:02.917Z,1.10
2022-10-02T17:12:32.720Z,1.00
2022-10-02T17:15:02.755Z,1.10
2022-10-02T17:17:33.030Z,1.10
2022-10-02T17:20:05.937Z,0.80
2022-10-02T17:22:36.679Z,1.20
2022-10-02T17:25:10.229Z,1.40
2022-10-02T17:27:42.522Z,1.80
2022-10-02T17:30:16.603Z,2.47
2022-10-02T17:32:51.694Z,2.47
2022-10-02T17:35:25.910Z,3.53
2022-10-02T17:38:09.269Z,3.20
2022-10-02T17:40:40.499Z,3.40
2022-10-02T17:43:11.094Z,3.07
2022-10-02T17:45:40.156Z,3.23
2022-10-02T17:48:33.187Z,3.43
2022-10-02T17:51:31.282Z,3.40
2022-10-02T17:54:25.886Z,3.20
2022-10-02T17:57:01.506Z,2.90
2022-10-02T17:59:48.497Z,3.37
2022-10-02T18:02:30.571Z,2.50
2022-10-02T18:05:09.347Z,2.93
2022-10-02T18:07:41.636Z,3.50
2022-10-02T18:10:16.812Z,2.93
2022-10-02T18:12:51.416Z,2.80
2022-10-02T18:15:23.745Z,3.30
2022-10-02T18:17:59.202Z,2.73
2022-10-02T18:20:31.213Z,3.20
2022-10-02T18:23:02.950Z,2.83
2022-10-02T18:25:34.855Z,3.27
2022-10-02T18:28:21.359Z,2.47
2022-10-02T18:30:54.982Z,2.63
2022-10-02T18:33:36.503Z,3.33
2022-10-02T18:36:11.016Z,3.13
2022-10-02T18:38:45.550Z,3.17
2022-10-02T18:41:26.855Z,2.63
2022-10-02T18:44:01.228Z,2.90
2022-10-02T18:46:34.675Z,2.73
2022-10-02T18:49:17.673Z,2.40
2022-10-02T18:51:58.751Z,2.83
2022-10-02T18:54:30.820Z,2.53
2022-10-02T18:57:01.233Z,2.57
2022-10-02T18:59:33.250Z,2.70
2022-10-02T19:02:12.576Z,2.90
2022-10-02T19:05:01.077Z,2.67
2022-10-02T19:07:30.547Z,2.53
2022-10-02T19:10:21.835Z,2.53
2022-10-02T19:12:52.761Z,3.53
2022-10-02T19:15:22.575Z,3.20
2022-10-02T19:18:03.769Z,3.50
2022-10-02T19:20:49.424Z,4.00
2022-10-02T19:23:19.425Z,3.53
2022-10-02T19:25:48.409Z,2.83
2022-10-02T19:28:18.681Z,2.83
2022-10-02T19:30:48.896Z,4.73
2022-10-02T19:33:23.614Z,5.27
2022-10-02T19:35:52.065Z,4.50
2022-10-02T19:38:27.539Z,4.97
2022-10-02T19:40:56.714Z,3.80
2022-10-02T19:43:28.431Z,4.20
2022-10-02T19:46:00.447Z,3.80
2022-10-02T19:48:34.621Z,4.07
2022-10-02T19:51:03.617Z,4.70
2022-10-02T19:53:34.150Z,4.03
2022-10-02T19:56:06.375Z,4.30
2022-10-02T19:58:35.114Z,4.50
2022-10-02T20:01:03.650Z,4.50
2022-10-02T20:03:42.555Z,4.37
2022-10-02T20:06:11.812Z,3.87
2022-10-02T20:08:40.538Z,3.73
2022-10-02T20:11:09.869Z,3.50
2022-10-02T20:13:39.351Z,3.47
2022-10-02T20:16:25.797Z,3.97
2022-10-02T20:18:55.570Z,3.80
2022-10-02T20:21:25.365Z,3.90
2022-10-02T20:23:56.398Z,3.70
2022-10-02T20:26:26.027Z,3.27
2022-10-02T20:28:55.200Z,4.33
2022-10-02T20:31:34.957Z,4.07
2022-10-02T20:34:05.325Z,3.10
2022-10-02T20:36:36.022Z,3.40
2022-10-02T20:39:04.909Z,3.83
2022-10-02T20:41:34.221Z,4.00
2022-10-02T20:44:04.670Z,3.70
2022-10-02T20:46:53.131Z,4.57
2022-10-02T20:49:31.791Z,3.53
2022-10-02T20:52:10.054Z,3.87
2022-10-02T20:54:43.336Z,3.43
2022-10-02T20:57:43.319Z,3.47
2022-10-02T21:00:24.782Z,4.03
2022-10-02T21:03:14.002Z,4.33
2022-10-02T21:05:54.694Z,4.73
2022-10-02T21:08:27.657Z,4.43
2022-10-02T21:14:01.700Z,3.90
2022-10-02T21:16:34.321Z,3.00
2022-10-02T21:19:06.929Z,3.73
2022-10-02T21:21:54.072Z,4.10
2022-10-02T21:24:27.503Z,4.00
2022-10-02T21:26:58.800Z,4.73
2022-10-02T21:29:29.598Z,4.27
2022-10-02T21:32:02.089Z,5.90
2022-10-02T21:34:33.147Z,4.60
2022-10-02T21:37:01.534Z,5.67
2022-10-02T21:39:38.072Z,5.47
2022-10-02T21:42:36.622Z,6.40
2022-10-02T21:45:28.899Z,5.27
2022-10-02T21:48:14.760Z,5.80
2022-10-02T21:51:01.044Z,5.70
2022-10-02T21:53:47.247Z,6.87
2022-10-02T21:56:39.830Z,6.83
2022-10-02T21:59:19.379Z,7.23
2022-10-02T22:02:08.919Z,7.03
2022-10-02T22:04:45.830Z,8.00
2022-10-02T22:07:14.551Z,8.97
2022-10-02T22:09:44.705Z,9.20
2022-10-02T22:12:27.855Z,8.80
2022-10-02T22:15:00.214Z,7.80
2022-10-02T22:17:31.366Z,8.53
2022-10-02T22:20:07.261Z,8.73
2022-10-02T22:22:39.739Z,8.40
2022-10-02T22:25:15.228Z,8.43
2022-10-02T22:27:58.426Z,9.80
2022-10-02T22:30:28.363Z,9.67
2022-10-02T22:33:12.282Z,9.93
2022-10-02T22:35:47.960Z,8.37
2022-10-02T22:38:17.330Z,8.13
2022-10-02T22:40:47.340Z,9.63
2022-10-02T22:43:19.619Z,10.27
2022-10-02T22:45:50.115Z,8.90
2022-10-02T22:48:19.224Z,9.33
2022-10-02T22:50:48.635Z,11.17
2022-10-02T22:53:17.288Z,9.93
2022-10-02T22:55:47.736Z,11.70
2022-10-02T22:58:16.411Z,10.30
2022-10-02T23:00:53.659Z,11.50
2022-10-02T23:03:24.464Z,12.27
2022-10-02T23:05:53.479Z,12.07
2022-10-02T23:08:25.969Z,11.57
2022-10-02T23:10:55.242Z,11.97
2022-10-02T23:13:24.126Z,11.53
2022-10-02T23:15:54.936Z,10.80
2022-10-02T23:18:26.953Z,11.33
2022-10-02T23:21:04.500Z,10.67
2022-10-02T23:23:34.285Z,12.10
2022-10-02T23:26:03.737Z,11.50
2022-10-02T23:28:32.606Z,10.63
2022-10-02T23:31:08.582Z,11.93
2022-10-02T23:33:39.947Z,10.50
2022-10-02T23:36:09.124Z,10.97
2022-10-02T23:38:38.213Z,10.40
2022-10-02T23:41:24.444Z,11.27
2022-10-02T23:43:56.387Z,10.57
2022-10-02T23:46:28.291Z,9.43
2022-10-02T23:48:56.581Z,10.60
2022-10-02T23:51:29.068Z,10.53
2022-10-02T23:54:02.991Z,11.67
2022-10-02T23:56:44.189Z,11.00
2022-10-02T23:59:16.032Z,11.20
